Time;durP1;ratioP1;P1;durP2;ratioP2;P2;SDS_P1;SDS_P2;PMS_P1;PMS_P2;Temp;Humidity;BMP_temperature;BMP_pressure;BME280_temperature;BME280_humidity;BME280_pressure;Samples;Min_cycle;Max_cycle;Signal;HPM_P1;HPM_P2
2023/12/22 00:00:01;;;;;;;3.42;1.55;;;10.60;99.90;;;;;;5074934;28;20032;-70
2023/12/22 00:02:28;;;;;;;8.82;3.17;;;10.50;99.90;;;;;;5060876;28;20029;-68
2023/12/22 00:04:54;;;;;;;3.83;0.90;;;10.50;99.90;;;;;;5075192;28;20107;-69
2023/12/22 00:07:20;;;;;;;4.18;1.55;;;10.50;99.90;;;;;;5075522;28;20111;-69
2023/12/22 00:09:45;;;;;;;4.43;1.92;;;10.50;99.90;;;;;;5075284;28;20056;-70
2023/12/22 00:12:11;;;;;;;5.35;0.65;;;10.50;99.90;;;;;;5075228;28;20416;-68
2023/12/22 00:14:40;;;;;;;12.20;2.97;;;10.50;99.90;;;;;;5075143;28;20029;-69
2023/12/22 00:17:06;;;;;;;5.63;2.53;;;10.40;99.90;;;;;;5073579;28;20031;-69
2023/12/22 00:19:32;;;;;;;2.95;0.98;;;10.30;99.90;;;;;;5074057;28;20025;-69
2023/12/22 00:21:58;;;;;;;3.58;0.60;;;10.30;99.90;;;;;;5062319;28;20055;-70
2023/12/22 00:24:24;;;;;;;43.47;19.08;;;10.30;99.90;;;;;;5073881;28;20389;-68
2023/12/22 00:26:50;;;;;;;7.82;1.05;;;10.30;99.90;;;;;;5074782;28;20020;-68
2023/12/22 00:29:16;;;;;;;0.40;0.10;;;10.30;99.90;;;;;;5063551;28;20393;-69
2023/12/22 00:31:42;;;;;;;10.50;2.28;;;10.40;99.90;;;;;;5071870;28;20024;-68
2023/12/22 00:34:08;;;;;;;0.35;0.20;;;10.40;99.90;;;;;;5074848;28;20029;-68
2023/12/22 00:36:34;;;;;;;8.75;1.63;;;10.30;99.90;;;;;;5074660;28;20447;-68
2023/12/22 00:39:00;;;;;;;10.45;4.05;;;10.40;99.90;;;;;;5074791;28;20485;-70
2023/12/22 00:41:26;;;;;;;3.50;1.02;;;10.30;99.90;;;;;;5074768;28;20016;-68
2023/12/22 00:43:51;;;;;;;9.80;3.33;;;10.30;99.90;;;;;;5074313;28;20481;-68
2023/12/22 00:46:17;;;;;;;5.68;2.15;;;10.30;99.90;;;;;;5073516;28;20035;-69
2023/12/22 00:48:43;;;;;;;1.00;0.38;;;10.30;99.90;;;;;;5074615;28;20031;-69
2023/12/22 00:51:09;;;;;;;13.20;2.55;;;10.30;99.90;;;;;;5090316;28;20401;-69
2023/12/22 00:53:35;;;;;;;10.55;2.40;;;10.40;99.90;;;;;;5074136;28;20066;-68
2023/12/22 00:56:02;;;;;;;9.57;2.30;;;10.40;99.90;;;;;;5074154;28;20021;-69
2023/12/22 00:58:29;;;;;;;2.53;0.30;;;10.40;99.90;;;;;;5089930;28;20025;-68
2023/12/22 01:00:55;;;;;;;0.13;0.13;;;10.40;99.90;;;;;;5073953;28;20044;-68
2023/12/22 01:03:21;;;;;;;0.75;0.75;;;10.40;99.90;;;;;;5074079;28;20020;-68
2023/12/22 01:05:47;;;;;;;19.25;2.60;;;10.50;99.90;;;;;;5074367;28;20036;-68
2023/12/22 01:08:13;;;;;;;3.45;1.02;;;10.40;99.90;;;;;;5060102;28;20067;-67
2023/12/22 01:10:38;;;;;;;0.17;0.17;;;9.90;99.90;;;;;;5074182;28;20020;-68
2023/12/22 01:13:04;;;;;;;11.23;1.85;;;9.50;99.90;;;;;;5073692;28;20450;-68
2023/12/22 01:15:30;;;;;;;8.35;1.80;;;9.60;99.90;;;;;;5074196;28;20056;-69
2023/12/22 01:17:56;;;;;;;2.70;1.35;;;9.60;99.90;;;;;;5073723;28;20027;-68
2023/12/22 01:20:22;;;;;;;0.52;0.43;;;9.70;99.90;;;;;;5072692;28;20024;-68
2023/12/22 01:22:48;;;;;;;2.85;0.77;;;9.80;99.90;;;;;;5080863;22;20494;-68
2023/12/22 01:25:13;;;;;;;3.40;0.75;;;9.90;99.90;;;;;;5089793;28;20370;-69
2023/12/22 01:27:39;;;;;;;11.13;1.27;;;9.90;99.90;;;;;;5073451;28;20025;-69
2023/12/22 01:30:06;;;;;;;0.40;0.40;;;10.00;99.90;;;;;;5073622;28;20020;-69
2023/12/22 01:32:35;;;;;;;2.17;1.05;;;10.10;99.90;;;;;;5073703;28;20033;-68
2023/12/22 01:35:03;;;;;;;4.20;0.98;;;10.00;99.90;;;;;;5073516;28;20035;-69
2023/12/22 01:37:30;;;;;;;21.88;3.10;;;10.10;99.90;;;;;;5073701;28;20013;-67
2023/12/22 01:39:55;;;;;;;11.70;2.33;;;10.10;99.90;;;;;;5073618;28;20370;-68
2023/12/22 01:42:21;;;;;;;3.63;1.48;;;10.10;99.90;;;;;;5073163;28;20024;-69
2023/12/22 01:44:47;;;;;;;5.57;1.58;;;10.10;99.90;;;;;;5073776;28;20028;-70
2023/12/22 01:47:14;;;;;;;18.65;2.22;;;10.10;99.90;;;;;;5073249;28;20020;-68
2023/12/22 01:49:40;;;;;;;8.02;1.75;;;10.00;99.90;;;;;;5072038;28;20037;-70
2023/12/22 01:52:07;;;;;;;1.20;0.88;;;10.10;99.90;;;;;;5073311;28;20029;-69
2023/12/22 01:54:33;;;;;;;5.72;1.67;;;10.10;99.90;;;;;;5089046;28;20078;-69
2023/12/22 01:56:59;;;;;;;4.35;1.60;;;10.00;99.90;;;;;;5072943;28;20028;-68
2023/12/22 01:59:28;;;;;;;14.57;2.35;;;10.00;99.90;;;;;;5072459;28;20484;-68
2023/12/22 02:01:54;;;;;;;2.85;0.65;;;10.00;99.90;;;;;;5075692;28;20527;-69
2023/12/22 02:04:20;;;;;;;0.25;0.25;;;9.90;99.90;;;;;;5085928;28;20138;-69
2023/12/22 02:06:46;;;;;;;0.47;0.47;;;9.90;99.90;;;;;;5084894;28;20028;-69
2023/12/22 02:09:12;;;;;;;9.45;1.48;;;9.90;99.90;;;;;;5081724;28;20033;-69
2023/12/22 02:11:39;;;;;;;0.38;0.38;;;10.00;99.90;;;;;;5090013;28;20069;-69
2023/12/22 02:14:06;;;;;;;28.45;3.83;;;9.90;99.90;;;;;;5091244;28;20109;-70
2023/12/22 02:17:14;;;;;;;3.03;0.60;;;9.90;99.90;;;;;;5091925;28;20430;-68
2023/12/22 02:19:45;;;;;;;9.23;0.90;;;9.90;99.90;;;;;;5085960;28;20459;-68
2023/12/22 02:22:12;;;;;;;0.73;0.60;;;9.80;99.90;;;;;;5092824;28;20047;-69
2023/12/22 02:24:41;;;;;;;16.10;2.88;;;9.80;99.90;;;;;;5091632;28;20135;-68
2023/12/22 02:27:37;;;;;;;17.73;3.30;;;9.90;99.90;;;;;;5093118;28;20016;-68
2023/12/22 02:30:08;;;;;;;5.35;0.80;;;9.90;99.90;;;;;;5091124;28;20493;-69
2023/12/22 02:32:43;;;;;;;7.28;2.97;;;9.90;99.90;;;;;;5093110;28;20022;-69
2023/12/22 02:35:17;;;;;;;5.65;0.90;;;9.90;99.90;;;;;;5077539;28;20040;-68
2023/12/22 02:37:45;;;;;;;8.07;0.60;;;9.90;99.90;;;;;;5067146;28;20051;-69
2023/12/22 02:40:12;;;;;;;1.40;0.22;;;10.00;99.90;;;;;;5092909;28;20364;-67
2023/12/22 02:42:38;;;;;;;1.27;0.38;;;10.00;99.90;;;;;;5093083;28;20063;-68
2023/12/22 02:45:05;;;;;;;2.53;2.35;;;10.00;99.90;;;;;;5092764;28;20052;-68
2023/12/22 02:47:33;;;;;;;16.92;2.35;;;10.00;99.90;;;;;;5092765;28;20091;-68
2023/12/22 02:49:59;;;;;;;6.28;1.88;;;10.00;99.90;;;;;;5092734;28;20044;-69
2023/12/22 02:52:25;;;;;;;1.40;0.98;;;10.00;99.90;;;;;;5078418;28;20036;-70
2023/12/22 02:54:51;;;;;;;10.85;2.53;;;9.90;99.90;;;;;;5092482;28;20028;-69
2023/12/22 02:57:16;;;;;;;1.63;0.50;;;9.90;99.90;;;;;;5092846;28;20056;-69
2023/12/22 02:59:42;;;;;;;4.78;2.00;;;9.80;99.90;;;;;;5092687;28;20020;-69
2023/12/22 03:02:08;;;;;;;10.95;2.15;;;9.90;99.90;;;;;;5092621;28;20036;-69
2023/12/22 03:04:35;;;;;;;18.40;2.45;;;9.90;99.90;;;;;;5092607;28;20483;-69
2023/12/22 03:07:01;;;;;;;1.83;0.88;;;9.90;99.90;;;;;;5092723;28;20028;-69
2023/12/22 03:09:26;;;;;;;6.65;1.27;;;10.00;99.90;;;;;;5077861;28;20048;-68
2023/12/22 03:11:54;;;;;;;4.32;1.33;;;10.10;99.90;;;;;;5092633;28;20016;-68
2023/12/22 03:14:20;;;;;;;10.43;1.25;;;10.10;99.90;;;;;;5091504;28;20024;-69
2023/12/22 03:16:46;;;;;;;10.65;1.98;;;10.20;99.90;;;;;;5078715;28;20372;-69
2023/12/22 03:19:12;;;;;;;20.02;0.90;;;10.10;99.90;;;;;;5095239;28;20036;-68
2023/12/22 03:21:37;;;;;;;6.82;1.45;;;10.10;99.90;;;;;;5096149;28;20098;-69
2023/12/22 03:24:03;;;;;;;12.02;3.35;;;10.20;99.90;;;;;;5094873;28;20477;-69
2023/12/22 03:26:29;;;;;;;14.25;4.40;;;10.10;99.90;;;;;;5095229;28;20019;-69
2023/12/22 03:28:55;;;;;;;7.47;1.75;;;10.10;99.90;;;;;;5096354;28;20047;-68
2023/12/22 03:31:21;;;;;;;25.05;3.85;;;10.00;99.90;;;;;;5095939;28;20035;-69
2023/12/22 03:33:46;;;;;;;14.77;1.58;;;10.10;99.90;;;;;;5089195;28;20025;-69
2023/12/22 03:36:12;;;;;;;16.20;3.83;;;10.10;99.90;;;;;;5063500;28;20025;-70
2023/12/22 03:38:38;;;;;;;4.72;1.73;;;10.10;99.90;;;;;;5071311;28;20085;-69
2023/12/22 03:41:04;;;;;;;4.10;2.38;;;10.10;99.90;;;;;;5075488;28;20115;-69
2023/12/22 03:43:31;;;;;;;1.40;0.82;;;10.00;99.90;;;;;;5075554;28;20037;-69
2023/12/22 03:45:57;;;;;;;13.18;1.55;;;9.90;99.90;;;;;;5075829;28;20083;-68
2023/12/22 03:48:23;;;;;;;21.23;2.67;;;10.00;99.90;;;;;;5075579;28;20032;-68
2023/12/22 03:50:49;;;;;;;4.45;2.03;;;9.90;99.90;;;;;;5088681;28;20044;-68
2023/12/22 03:53:15;;;;;;;3.17;0.75;;;9.90;99.90;;;;;;5075646;28;20132;-70
2023/12/22 03:55:40;;;;;;;11.50;2.90;;;9.90;99.90;;;;;;5057422;28;20027;-68
2023/12/22 03:58:07;;;;;;;16.95;4.18;;;9.90;99.90;;;;;;5075450;28;20029;-69
2023/12/22 04:00:34;;;;;;;4.47;1.35;;;9.90;99.90;;;;;;5074835;28;20031;-69
2023/12/22 04:03:00;;;;;;;11.20;2.85;;;9.90;99.90;;;;;;5074407;28;20055;-69
2023/12/22 04:05:27;;;;;;;22.27;4.32;;;9.90;99.90;;;;;;5074993;28;20036;-69
2023/12/22 04:07:53;;;;;;;12.02;2.35;;;9.90;99.90;;;;;;5075124;28;20024;-68
2023/12/22 04:10:19;;;;;;;14.15;2.85;;;9.80;99.90;;;;;;5083495;28;20040;-68
2023/12/22 04:12:45;;;;;;;2.17;0.30;;;9.90;99.90;;;;;;5095379;28;20039;-68
2023/12/22 04:15:11;;;;;;;16.70;2.78;;;9.90;99.90;;;;;;5095272;28;20028;-69
2023/12/22 04:17:39;;;;;;;5.93;1.88;;;10.00;99.90;;;;;;5095377;28;20495;-68
2023/12/22 04:20:06;;;;;;;0.65;0.65;;;9.90;99.90;;;;;;5080705;28;20032;-68
2023/12/22 04:22:32;;;;;;;1.92;1.05;;;10.00;99.90;;;;;;5094938;28;20028;-69
2023/12/22 04:24:58;;;;;;;10.20;2.83;;;10.00;99.90;;;;;;5094970;28;20533;-69
2023/12/22 04:27:24;;;;;;;1.65;1.27;;;10.00;99.90;;;;;;5095031;28;20473;-70
2023/12/22 04:29:50;;;;;;;10.40;2.50;;;10.00;99.90;;;;;;5092052;28;20032;-68
2023/12/22 04:32:16;;;;;;;1.85;0.47;;;10.00;99.90;;;;;;5054684;28;20021;-69
2023/12/22 04:34:41;;;;;;;3.63;2.22;;;10.10;99.90;;;;;;5081108;28;20587;-68
2023/12/22 04:37:07;;;;;;;8.55;1.45;;;10.10;99.90;;;;;;5093613;28;20366;-68
2023/12/22 04:39:33;;;;;;;17.35;3.05;;;10.10;99.90;;;;;;5083581;28;20051;-69
2023/12/22 04:41:59;;;;;;;4.72;1.15;;;10.00;99.90;;;;;;5091538;28;20028;-68
2023/12/22 04:44:25;;;;;;;0.50;0.50;;;10.00;99.90;;;;;;5094796;28;20524;-69
2023/12/22 04:46:51;;;;;;;12.30;2.83;;;9.90;99.90;;;;;;5080183;28;20039;-70
2023/12/22 04:49:16;;;;;;;19.25;3.53;;;9.90;99.90;;;;;;5094469;28;20032;-68
2023/12/22 04:51:42;;;;;;;10.40;1.67;;;9.90;99.90;;;;;;5094294;28;20024;-70
2023/12/22 04:54:08;;;;;;;6.35;1.73;;;10.00;99.90;;;;;;5066228;28;20042;-68
2023/12/22 04:56:35;;;;;;;23.52;4.90;;;10.00;99.90;;;;;;5094422;28;20031;-69
2023/12/22 04:59:01;;;;;;;30.77;4.45;;;10.10;99.90;;;;;;5094552;28;20026;-69
2023/12/22 05:01:27;;;;;;;13.48;1.52;;;10.10;99.90;;;;;;5094205;28;20063;-69
2023/12/22 05:03:54;;;;;;;19.90;2.53;;;10.20;99.90;;;;;;5094062;28;20132;-69
2023/12/22 05:06:20;;;;;;;6.85;2.45;;;10.20;99.90;;;;;;5094125;28;20048;-70
2023/12/22 05:08:46;;;;;;;13.95;1.13;;;10.20;99.90;;;;;;5083058;28;20569;-68
2023/12/22 05:11:12;;;;;;;13.88;2.50;;;10.20;99.90;;;;;;5088730;28;20377;-68
2023/12/22 05:13:38;;;;;;;22.15;2.75;;;10.20;99.90;;;;;;5094197;28;20446;-69
2023/12/22 05:16:04;;;;;;;4.63;0.28;;;10.20;99.90;;;;;;5092866;28;20020;-68
2023/12/22 05:18:30;;;;;;;4.47;1.60;;;10.30;99.90;;;;;;5075888;28;20024;-69
2023/12/22 05:20:56;;;;;;;13.57;3.58;;;10.20;99.90;;;;;;5094344;28;20468;-69
2023/12/22 05:23:22;;;;;;;7.68;1.88;;;10.30;99.90;;;;;;5093755;28;20024;-70
2023/12/22 05:25:48;;;;;;;6.30;2.88;;;10.30;99.90;;;;;;5094317;28;20032;-70
2023/12/22 05:28:14;;;;;;;2.42;0.57;;;10.30;99.90;;;;;;5093965;28;20043;-70
2023/12/22 05:30:40;;;;;;;23.48;4.15;;;10.30;99.90;;;;;;5124391;22;20020;-70
2023/12/22 05:33:05;;;;;;;15.30;3.10;;;10.30;99.90;;;;;;5087166;28;20040;-69
2023/12/22 05:35:31;;;;;;;13.50;2.65;;;10.30;99.90;;;;;;5067737;28;20108;-68
2023/12/22 05:37:57;;;;;;;8.07;2.25;;;10.30;99.90;;;;;;5077823;28;20042;-68
2023/12/22 05:40:23;;;;;;;0.52;0.47;;;10.30;99.90;;;;;;5079409;28;20012;-68
2023/12/22 05:42:49;;;;;;;1.27;0.85;;;10.30;99.90;;;;;;5093708;28;20460;-69
2023/12/22 05:45:15;;;;;;;9.00;1.05;;;10.30;99.90;;;;;;5091865;28;20024;-69
2023/12/22 05:47:41;;;;;;;19.10;3.22;;;10.30;99.90;;;;;;5063793;28;20029;-69
2023/12/22 05:50:08;;;;;;;1.10;1.05;;;10.30;99.90;;;;;;5081774;28;20459;-69
2023/12/22 05:52:33;;;;;;;12.90;2.33;;;10.40;99.90;;;;;;5092309;28;20032;-68
2023/12/22 05:54:59;;;;;;;8.23;3.85;;;10.40;99.90;;;;;;5093835;28;20103;-69
2023/12/22 05:57:26;;;;;;;3.10;1.25;;;10.40;99.90;;;;;;5093337;28;20044;-69
2023/12/22 05:59:52;;;;;;;3.45;1.38;;;10.40;99.90;;;;;;5093681;28;20023;-69
2023/12/22 06:02:18;;;;;;;21.15;4.07;;;10.50;99.90;;;;;;5073759;28;20111;-69
2023/12/22 06:04:44;;;;;;;7.13;1.55;;;10.50;99.90;;;;;;5061043;28;20101;-69
2023/12/22 06:07:13;;;;;;;26.95;2.38;;;10.50;99.90;;;;;;5071923;28;20028;-69
2023/12/22 06:09:39;;;;;;;7.88;2.53;;;10.50;99.90;;;;;;5074501;28;20028;-68
2023/12/22 06:12:06;;;;;;;13.57;2.47;;;10.50;99.90;;;;;;5093291;28;20493;-69
2023/12/22 06:14:34;;;;;;;3.20;1.55;;;10.50;99.90;;;;;;5093116;28;20162;-69
2023/12/22 06:17:00;;;;;;;6.55;1.30;;;10.50;99.90;;;;;;5091774;28;20020;-68
2023/12/22 06:19:28;;;;;;;8.43;2.63;;;10.60;99.90;;;;;;5079335;28;20423;-69
2023/12/22 06:21:54;;;;;;;13.48;2.20;;;10.50;99.90;;;;;;5064533;28;20457;-68
2023/12/22 06:24:20;;;;;;;2.22;1.73;;;10.50;99.90;;;;;;5093040;28;20046;-69
2023/12/22 06:26:46;;;;;;;16.70;2.47;;;10.50;99.90;;;;;;5093151;28;20097;-69
2023/12/22 06:29:11;;;;;;;1.55;0.65;;;10.50;99.90;;;;;;5091664;28;20036;-69
2023/12/22 06:31:37;;;;;;;0.60;0.60;;;10.50;99.90;;;;;;5092631;28;20036;-68
2023/12/22 06:34:03;;;;;;;8.55;2.58;;;10.60;99.90;;;;;;5092951;28;20036;-68
2023/12/22 06:36:32;;;;;;;12.00;2.63;;;10.60;99.90;;;;;;5093026;28;20036;-70
2023/12/22 06:38:58;;;;;;;8.02;1.65;;;10.60;99.90;;;;;;5065186;28;20031;-68
2023/12/22 06:41:28;;;;;;;4.70;1.83;;;10.60;99.90;;;;;;5091823;28;20036;-68
2023/12/22 06:43:55;;;;;;;1.55;1.23;;;10.60;99.90;;;;;;5092991;28;20392;-69
2023/12/22 06:46:23;;;;;;;0.95;0.68;;;10.60;99.90;;;;;;5091665;28;20056;-68
2023/12/22 06:48:49;;;;;;;2.38;1.52;;;10.60;99.90;;;;;;5060924;28;20804;-68
2023/12/22 06:51:19;;;;;;;10.82;2.03;;;10.60;99.90;;;;;;5071405;28;20031;-68
2023/12/22 06:53:46;;;;;;;2.95;1.20;;;10.60;99.90;;;;;;5091181;28;20036;-68
2023/12/22 06:56:16;;;;;;;3.78;1.02;;;10.50;99.90;;;;;;5095964;28;20017;-68
2023/12/22 06:58:42;;;;;;;2.13;1.10;;;10.50;99.90;;;;;;5095094;28;20059;-68
2023/12/22 07:01:08;;;;;;;0.35;0.35;;;10.50;99.90;;;;;;5062013;28;20063;-69
2023/12/22 07:03:34;;;;;;;6.50;1.95;;;10.50;99.90;;;;;;5089629;28;20077;-69
2023/12/22 07:06:00;;;;;;;0.22;0.20;;;10.50;99.90;;;;;;5090615;28;20029;-69
2023/12/22 07:08:26;;;;;;;2.45;0.30;;;10.40;99.90;;;;;;5075161;28;20503;-70
2023/12/22 07:10:51;;;;;;;14.98;1.33;;;10.40;99.90;;;;;;5089315;28;20024;-69
2023/12/22 07:13:17;;;;;;;3.58;1.40;;;10.50;99.90;;;;;;5096743;28;20047;-69
2023/12/22 07:15:43;;;;;;;0.00;0.00;;;10.50;99.90;;;;;;5165772;22;20044;-68
2023/12/22 07:18:09;;;;;;;3.55;1.33;;;10.40;99.90;;;;;;5096415;28;20020;-69
2023/12/22 07:20:35;;;;;;;4.72;0.77;;;10.40;99.90;;;;;;5096860;28;20028;-67
2023/12/22 07:23:01;;;;;;;2.50;0.90;;;10.40;99.90;;;;;;5095175;28;20033;-68
2023/12/22 07:25:26;;;;;;;7.93;1.95;;;10.40;99.90;;;;;;5096443;28;20022;-69
2023/12/22 07:27:52;;;;;;;2.65;0.52;;;10.40;99.90;;;;;;5096373;28;20079;-69
2023/12/22 07:30:18;;;;;;;1.50;0.85;;;10.30;99.90;;;;;;5095971;28;20488;-69
2023/12/22 07:32:47;;;;;;;0.80;0.38;;;10.30;99.90;;;;;;5096081;28;20342;-68
2023/12/22 07:35:13;;;;;;;7.88;0.40;;;10.30;99.90;;;;;;5094737;28;20392;-68
2023/12/22 07:37:38;;;;;;;10.35;1.52;;;10.30;99.90;;;;;;5096403;28;20024;-69
2023/12/22 07:40:05;;;;;;;4.85;1.48;;;10.40;99.90;;;;;;5096075;28;20035;-70
2023/12/22 07:42:31;;;;;;;1.95;0.55;;;10.30;99.90;;;;;;5096282;28;20016;-68
2023/12/22 07:44:57;;;;;;;2.72;1.20;;;10.40;99.90;;;;;;5095583;28;20036;-68
2023/12/22 07:47:23;;;;;;;0.80;0.65;;;10.50;99.90;;;;;;5095839;28;20016;-69
2023/12/22 07:49:49;;;;;;;1.35;0.73;;;10.50;99.90;;;;;;5095821;28;20043;-69
2023/12/22 07:52:15;;;;;;;3.53;0.80;;;10.50;99.90;;;;;;5095705;28;20020;-68
2023/12/22 07:54:41;;;;;;;7.90;1.65;;;10.50;99.90;;;;;;5095967;28;20028;-67
2023/12/22 07:57:07;;;;;;;1.88;0.30;;;10.50;99.90;;;;;;5095652;28;20031;-69
2023/12/22 07:59:33;;;;;;;0.80;0.47;;;10.60;99.90;;;;;;5095582;28;20111;-69
2023/12/22 08:01:59;;;;;;;6.10;2.47;;;10.60;99.90;;;;;;5095607;28;20102;-71
2023/12/22 08:04:25;;;;;;;2.47;1.17;;;10.70;99.90;;;;;;5094195;28;20060;-68
2023/12/22 08:06:52;;;;;;;0.65;0.20;;;10.70;99.90;;;;;;5095561;28;20030;-68
2023/12/22 08:09:17;;;;;;;12.05;2.03;;;10.70;99.90;;;;;;5081412;28;20038;-68
2023/12/22 08:11:46;;;;;;;1.15;0.75;;;10.80;99.90;;;;;;5080697;28;20356;-69
2023/12/22 08:14:12;;;;;;;5.05;0.52;;;10.80;99.90;;;;;;5094773;28;20032;-68
2023/12/22 08:16:38;;;;;;;12.07;0.80;;;10.90;99.90;;;;;;5095230;28;20016;-70
2023/12/22 08:19:03;;;;;;;1.67;0.10;;;11.00;99.90;;;;;;5074707;28;20037;-68
2023/12/22 08:21:29;;;;;;;2.47;0.95;;;11.00;99.90;;;;;;5087248;28;20367;-69
2023/12/22 08:23:55;;;;;;;0.20;0.20;;;11.10;99.90;;;;;;5093825;28;20060;-68
2023/12/22 08:26:21;;;;;;;0.10;0.10;;;11.10;99.90;;;;;;5094335;28;20392;-68
2023/12/22 08:28:47;;;;;;;0.00;0.00;;;11.10;99.90;;;;;;5094423;28;20073;-69
2023/12/22 08:31:13;;;;;;;2.75;1.42;;;11.10;99.90;;;;;;5094812;28;20453;-69
2023/12/22 08:33:40;;;;;;;0.63;0.30;;;11.20;99.90;;;;;;5093846;28;20445;-71
2023/12/22 08:36:07;;;;;;;0.95;0.93;;;11.30;99.90;;;;;;5095044;28;20019;-68
2023/12/22 08:38:32;;;;;;;2.47;0.57;;;11.30;99.90;;;;;;5061122;28;20083;-69
2023/12/22 08:40:58;;;;;;;3.03;0.30;;;11.40;99.90;;;;;;5063364;28;20539;-69
2023/12/22 08:43:24;;;;;;;0.25;0.25;;;11.40;99.90;;;;;;5088292;28;20384;-68
2023/12/22 08:45:50;;;;;;;1.75;0.63;;;11.40;99.90;;;;;;5068896;28;20024;-70
2023/12/22 08:48:16;;;;;;;2.38;0.82;;;11.40;99.90;;;;;;5094696;28;20085;-69
2023/12/22 08:50:42;;;;;;;0.00;0.00;;;11.50;99.90;;;;;;5093332;28;20016;-69
2023/12/22 08:53:07;;;;;;;0.50;0.40;;;11.50;99.90;;;;;;5094668;28;20048;-68
2023/12/22 08:55:33;;;;;;;5.47;1.17;;;11.50;99.90;;;;;;5094580;28;20056;-70
2023/12/22 08:57:59;;;;;;;0.45;0.38;;;11.50;99.90;;;;;;5094626;28;20020;-70
2023/12/22 09:00:25;;;;;;;4.57;2.38;;;11.60;99.90;;;;;;5093641;28;20051;-69
2023/12/22 09:02:51;;;;;;;5.35;0.85;;;11.50;99.90;;;;;;5074339;28;20104;-67
2023/12/22 09:05:18;;;;;;;0.00;0.00;;;11.50;99.90;;;;;;5087585;28;20418;-70
2023/12/22 09:07:44;;;;;;;0.00;0.00;;;11.60;99.90;;;;;;5079219;28;20413;-68
2023/12/22 09:10:12;;;;;;;0.05;0.05;;;11.60;99.90;;;;;;5081240;28;20024;-68
2023/12/22 09:12:38;;;;;;;1.05;0.45;;;11.60;99.90;;;;;;5094266;28;20020;-67
2023/12/22 09:15:04;;;;;;;0.17;0.10;;;11.60;99.90;;;;;;5094048;28;20036;-69
2023/12/22 09:17:30;;;;;;;2.50;2.17;;;11.60;99.90;;;;;;5094551;28;20491;-70
2023/12/22 09:19:56;;;;;;;4.53;0.38;;;11.60;99.90;;;;;;5062321;28;20119;-68
2023/12/22 09:22:22;;;;;;;2.60;0.57;;;11.60;99.90;;;;;;5083527;28;20020;-69
2023/12/22 09:24:48;;;;;;;1.58;0.77;;;11.60;99.90;;;;;;5079712;28;20093;-69
2023/12/22 09:27:14;;;;;;;3.65;0.50;;;11.70;99.90;;;;;;5094089;28;20042;-69
2023/12/22 09:29:40;;;;;;;3.47;0.63;;;11.80;99.90;;;;;;5094188;28;20461;-68
2023/12/22 09:32:06;;;;;;;2.58;1.33;;;11.80;99.90;;;;;;5092340;28;20024;-69
2023/12/22 09:34:33;;;;;;;2.13;0.60;;;11.80;99.90;;;;;;5094090;28;20039;-69
2023/12/22 09:36:59;;;;;;;3.65;0.68;;;11.80;99.90;;;;;;5093869;28;20012;-70
2023/12/22 09:39:24;;;;;;;0.45;0.38;;;11.80;99.90;;;;;;5083751;28;20050;-70
2023/12/22 09:41:51;;;;;;;0.32;0.32;;;11.80;99.90;;;;;;5089679;28;20481;-68
2023/12/22 09:44:20;;;;;;;0.65;0.52;;;11.80;99.90;;;;;;5093769;28;20013;-68
2023/12/22 09:46:49;;;;;;;0.85;0.63;;;11.80;99.90;;;;;;5077926;28;20131;-68
2023/12/22 09:49:18;;;;;;;1.45;0.75;;;11.80;99.90;;;;;;5080593;28;20035;-69
2023/12/22 09:51:45;;;;;;;0.52;0.30;;;11.80;99.90;;;;;;5093788;28;20051;-70
2023/12/22 09:54:11;;;;;;;3.83;1.33;;;11.80;99.90;;;;;;5093151;28;20066;-68
2023/12/22 09:56:42;;;;;;;14.93;2.30;;;11.80;99.90;;;;;;5094046;28;20373;-69
2023/12/22 09:59:15;;;;;;;12.18;1.17;;;11.80;99.90;;;;;;5093545;28;20027;-68
2023/12/22 10:01:45;;;;;;;0.63;0.63;;;11.80;99.90;;;;;;5093520;28;20024;-68
2023/12/22 10:04:13;;;;;;;0.95;0.65;;;11.80;99.90;;;;;;5078207;28;20446;-68
2023/12/22 10:06:39;;;;;;;8.20;1.15;;;11.80;99.90;;;;;;5093548;28;20480;-70
2023/12/22 10:09:08;;;;;;;0.10;0.10;;;11.80;99.90;;;;;;5080698;28;20044;-69
2023/12/22 10:11:36;;;;;;;15.02;0.85;;;11.90;99.90;;;;;;5092268;28;20480;-69
2023/12/22 10:14:06;;;;;;;1.67;1.05;;;11.90;99.90;;;;;;5093536;28;20373;-69
2023/12/22 10:16:32;;;;;;;5.38;1.08;;;11.80;99.90;;;;;;5093435;28;20495;-70
2023/12/22 10:19:00;;;;;;;3.33;1.30;;;11.80;99.90;;;;;;5093175;28;20028;-70
2023/12/22 10:21:25;;;;;;;3.38;0.93;;;11.80;99.90;;;;;;5091767;28;20039;-70
2023/12/22 10:23:51;;;;;;;7.18;0.63;;;11.90;99.90;;;;;;5093057;28;20020;-68
2023/12/22 10:26:17;;;;;;;9.70;1.13;;;11.90;99.90;;;;;;5092887;28;20419;-69
2023/12/22 10:28:43;;;;;;;4.20;0.90;;;11.90;99.90;;;;;;5092842;28;20036;-69
2023/12/22 10:31:09;;;;;;;6.63;1.65;;;11.90;99.90;;;;;;5093186;28;20024;-69
2023/12/22 10:33:35;;;;;;;2.83;0.85;;;11.90;99.90;;;;;;5091847;28;20036;-68
2023/12/22 10:36:01;;;;;;;1.08;0.73;;;11.90;99.90;;;;;;5093295;28;20538;-68
2023/12/22 10:38:36;;;;;;;0.10;0.10;;;11.90;99.90;;;;;;5090795;28;20061;-69
2023/12/22 10:41:03;;;;;;;0.75;0.73;;;11.90;99.90;;;;;;5084976;22;20040;-69
2023/12/22 10:43:29;;;;;;;1.00;0.28;;;11.90;99.90;;;;;;5088300;28;20059;-69
2023/12/22 10:45:55;;;;;;;4.78;2.40;;;11.80;99.90;;;;;;5085602;28;20028;-69
2023/12/22 10:48:22;;;;;;;3.30;0.77;;;11.80;99.90;;;;;;5086313;28;20040;-69
2023/12/22 10:50:48;;;;;;;4.60;2.00;;;11.80;99.90;;;;;;5077587;28;20026;-68
2023/12/22 10:53:15;;;;;;;1.08;0.35;;;11.80;99.90;;;;;;5080868;28;20035;-70
2023/12/22 10:55:41;;;;;;;4.80;2.28;;;11.80;99.90;;;;;;5090621;28;20368;-70
2023/12/22 10:58:08;;;;;;;0.47;0.47;;;11.80;99.90;;;;;;5092851;28;20028;-70
2023/12/22 11:00:40;;;;;;;0.43;0.20;;;11.80;99.90;;;;;;5091536;28;20054;-69
2023/12/22 11:03:08;;;;;;;;;;;11.80;99.90;;;;;;5075339;28;20031;-71
2023/12/22 11:05:36;;;;;;;0.50;0.50;;;11.80;99.90;;;;;;5068687;28;19904;-69
2023/12/22 11:08:06;;;;;;;4.20;1.23;;;11.80;99.90;;;;;;5088710;28;20045;-69
2023/12/22 11:10:34;;;;;;;4.53;1.40;;;11.70;99.90;;;;;;5065262;28;20039;-69
2023/12/22 11:13:02;;;;;;;14.15;2.55;;;11.70;99.90;;;;;;5092544;28;20013;-69
2023/12/22 11:15:28;;;;;;;3.13;1.60;;;11.70;99.90;;;;;;5091232;28;20043;-69
2023/12/22 11:17:57;;;;;;;5.25;0.55;;;11.70;99.90;;;;;;5091501;28;20017;-71
2023/12/22 11:20:25;;;;;;;0.47;0.47;;;11.70;99.90;;;;;;5092291;28;20032;-70
2023/12/22 11:22:52;;;;;;;3.10;1.27;;;11.70;99.90;;;;;;5092700;28;20401;-70
2023/12/22 11:25:19;;;;;;;0.70;0.50;;;11.70;99.90;;;;;;5092490;28;20027;-70
2023/12/22 11:27:48;;;;;;;0.00;0.00;;;11.80;99.90;;;;;;5092661;28;20113;-70
2023/12/22 11:30:16;;;;;;;3.20;0.35;;;11.80;99.90;;;;;;5076478;28;20032;-70
2023/12/22 11:32:44;;;;;;;0.35;0.35;;;11.80;99.90;;;;;;5092574;28;20028;-70
2023/12/22 11:35:10;;;;;;;1.02;1.00;;;11.90;99.90;;;;;;5089043;28;20024;-70
2023/12/22 11:37:39;;;;;;;4.75;1.38;;;11.90;99.90;;;;;;5081630;28;20484;-69
2023/12/22 11:40:05;;;;;;;10.32;1.27;;;11.90;99.90;;;;;;5095636;28;20492;-69
2023/12/22 11:42:36;;;;;;;6.40;1.00;;;11.90;99.90;;;;;;5080826;28;20465;-70
2023/12/22 11:45:03;;;;;;;0.00;0.00;;;12.00;99.90;;;;;;5082906;28;20042;-69
2023/12/22 11:47:29;;;;;;;0.00;0.00;;;12.00;99.90;;;;;;5082128;28;20020;-69
2023/12/22 11:49:56;;;;;;;9.38;1.52;;;12.10;99.90;;;;;;5095665;28;20085;-70
2023/12/22 11:52:28;;;;;;;0.00;0.00;;;12.00;99.90;;;;;;5094475;28;20081;-70
2023/12/22 11:54:55;;;;;;;1.17;0.47;;;12.10;99.90;;;;;;5095999;28;20032;-70
2023/12/22 11:57:32;;;;;;;4.70;1.50;;;12.10;99.90;;;;;;5095499;28;20023;-69
2023/12/22 12:00:08;;;;;;;0.00;0.00;;;12.10;99.90;;;;;;5073353;28;20013;-69
2023/12/22 12:02:41;;;;;;;0.20;0.20;;;12.00;99.90;;;;;;5078015;28;20036;-70
2023/12/22 12:05:08;;;;;;;0.00;0.00;;;12.00;99.90;;;;;;5095579;28;20374;-70
2023/12/22 12:07:50;;;;;;;0.32;0.32;;;12.10;99.90;;;;;;5095418;28;20464;-69
2023/12/22 12:10:37;;;;;;;0.98;0.52;;;12.00;99.90;;;;;;5071087;28;20040;-69
2023/12/22 12:13:10;;;;;;;1.58;0.75;;;12.00;99.90;;;;;;5095483;28;20085;-71
2023/12/22 12:15:37;;;;;;;4.30;0.45;;;12.00;99.90;;;;;;5095293;28;20029;-70
2023/12/22 12:18:05;;;;;;;1.48;0.60;;;12.00;99.90;;;;;;5095428;28;20020;-69
2023/12/22 12:20:32;;;;;;;2.83;1.08;;;12.00;99.90;;;;;;5094930;28;20115;-70
2023/12/22 12:22:59;;;;;;;0.73;0.50;;;12.00;99.90;;;;;;5095185;28;20085;-70
2023/12/22 12:25:30;;;;;;;1.10;0.60;;;12.00;99.90;;;;;;5081755;28;20122;-69
2023/12/22 12:28:06;;;;;;;6.38;0.75;;;12.00;99.90;;;;;;5067137;28;20043;-70
2023/12/22 12:30:33;;;;;;;2.33;0.70;;;12.00;99.90;;;;;;5068477;28;20107;-69
2023/12/22 12:33:09;;;;;;;2.63;0.68;;;11.90;99.90;;;;;;5094814;28;20031;-69
2023/12/22 12:35:37;;;;;;;3.95;0.65;;;11.90;99.90;;;;;;5067796;28;20023;-68
2023/12/22 12:38:06;;;;;;;3.47;0.40;;;11.90;99.90;;;;;;5095083;28;20480;-69
2023/12/22 12:40:34;;;;;;;1.65;0.82;;;11.90;99.90;;;;;;5094675;28;20056;-69
2023/12/22 12:43:02;;;;;;;1.20;1.00;;;11.90;99.90;;;;;;5094737;28;20121;-71